createdAt,value
2023-04-29T00:02:08.613Z,3.58
2023-04-29T00:04:36.066Z,3.40
2023-04-29T00:07:03.316Z,3.97
2023-04-29T00:09:30.458Z,4.22
2023-04-29T00:11:57.565Z,4.47
2023-04-29T00:14:24.943Z,4.00
2023-04-29T00:16:52.084Z,4.15
2023-04-29T00:19:23.665Z,4.10
2023-04-29T00:21:50.759Z,4.72
2023-04-29T00:24:20.079Z,4.03
2023-04-29T00:26:47.385Z,4.57
2023-04-29T00:29:14.444Z,4.38
2023-04-29T00:31:43.810Z,4.10
2023-04-29T00:34:13.148Z,4.72
2023-04-29T00:36:42.832Z,5.43
2023-04-29T00:39:15.250Z,6.07
2023-04-29T00:41:42.728Z,5.40
2023-04-29T00:44:12.449Z,6.13
2023-04-29T00:49:06.629Z,5.93
2023-04-29T00:51:36.214Z,5.82
2023-04-29T00:54:04.026Z,5.88
2023-04-29T00:56:32.394Z,5.60
2023-04-29T00:58:59.925Z,6.78
2023-04-29T01:01:27.253Z,6.70
2023-04-29T01:03:54.983Z,6.85
2023-04-29T01:06:22.395Z,6.82
2023-04-29T01:09:08.293Z,6.65
2023-04-29T01:11:50.725Z,6.28
2023-04-29T01:14:20.072Z,6.88
2023-04-29T01:16:53.892Z,7.18
2023-04-29T01:19:20.985Z,6.68
2023-04-29T01:21:48.976Z,6.07
2023-04-29T01:24:16.788Z,6.20
2023-04-29T01:26:47.409Z,5.72
2023-04-29T01:29:27.290Z,5.97
2023-04-29T01:32:05.036Z,6.10
2023-04-29T01:34:40.442Z,5.95
2023-04-29T01:37:30.334Z,5.82
2023-04-29T01:40:20.860Z,6.38
2023-04-29T01:42:58.484Z,5.47
2023-04-29T01:45:27.221Z,5.63
2023-04-29T01:47:56.204Z,5.50
2023-04-29T01:50:25.861Z,5.45
2023-04-29T01:52:55.433Z,4.82
2023-04-29T01:55:25.639Z,7.18
2023-04-29T01:57:52.738Z,5.72
2023-04-29T02:00:19.911Z,5.30
2023-04-29T02:02:47.036Z,5.53
2023-04-29T02:05:14.152Z,4.70
2023-04-29T02:07:42.417Z,5.28
2023-04-29T02:10:09.708Z,5.05
2023-04-29T02:12:36.869Z,5.00
2023-04-29T02:15:04.051Z,5.55
2023-04-29T02:17:31.219Z,5.40
2023-04-29T02:20:03.403Z,4.95
2023-04-29T02:22:30.525Z,4.75
2023-04-29T02:25:00.187Z,5.43
2023-04-29T02:27:27.303Z,4.82
2023-04-29T02:29:54.491Z,5.35
2023-04-29T02:32:24.063Z,5.35
2023-04-29T02:34:51.758Z,5.80
2023-04-29T02:37:18.843Z,5.45
2023-04-29T02:39:48.582Z,5.53
2023-04-29T02:42:15.647Z,6.05
2023-04-29T02:44:42.714Z,8.38
2023-04-29T02:47:12.275Z,8.27
2023-04-29T02:49:39.386Z,8.65
2023-04-29T02:52:06.473Z,8.38
2023-04-29T02:54:33.512Z,8.70
2023-04-29T02:57:00.555Z,9.00
2023-04-29T02:59:27.768Z,10.35
2023-04-29T03:01:54.879Z,9.73
2023-04-29T03:04:22.240Z,9.70
2023-04-29T03:06:52.146Z,8.70
2023-04-29T03:11:46.294Z,9.00
2023-04-29T03:14:13.380Z,10.52
2023-04-29T03:16:40.523Z,10.88
2023-04-29T03:19:07.648Z,10.25
2023-04-29T03:21:34.716Z,11.63
2023-04-29T03:24:01.804Z,9.95
2023-04-29T03:26:28.888Z,10.18
2023-04-29T03:28:55.953Z,11.23
2023-04-29T03:31:27.209Z,12.55
2023-04-29T03:33:54.377Z,10.77
2023-04-29T03:36:21.478Z,11.80
2023-04-29T03:38:48.551Z,11.45
2023-04-29T03:41:15.699Z,11.57
2023-04-29T03:43:44.136Z,11.02
2023-04-29T03:46:13.591Z,10.20
2023-04-29T03:48:42.954Z,11.82
2023-04-29T03:51:10.837Z,11.25
2023-04-29T03:53:37.941Z,13.10
2023-04-29T03:56:05.199Z,11.95
2023-04-29T03:58:32.375Z,12.45
2023-04-29T04:00:59.414Z,12.07
2023-04-29T04:03:28.215Z,12.70
2023-04-29T04:05:55.370Z,12.30
2023-04-29T04:08:22.676Z,13.05
2023-04-29T04:10:52.068Z,12.10
2023-04-29T04:13:19.126Z,12.50
2023-04-29T04:15:52.226Z,13.70
2023-04-29T04:18:19.401Z,14.45
2023-04-29T04:20:47.129Z,13.63
2023-04-29T04:23:14.472Z,15.32
2023-04-29T04:25:48.440Z,15.93
2023-04-29T04:28:18.040Z,16.77
2023-04-29T04:30:46.957Z,14.60
2023-04-29T04:33:14.255Z,15.13
2023-04-29T04:35:41.333Z,18.08
2023-04-29T04:38:09.205Z,18.95
2023-04-29T04:40:37.610Z,17.77
2023-04-29T04:43:04.801Z,17.45
2023-04-29T04:45:32.002Z,17.00
2023-04-29T04:47:59.176Z,16.77
2023-04-29T04:50:29.132Z,20.48
2023-04-29T04:55:26.278Z,20.15
2023-04-29T04:57:53.360Z,20.83
2023-04-29T05:00:20.764Z,22.00
2023-04-29T05:02:47.964Z,23.92
2023-04-29T05:05:15.103Z,22.38
2023-04-29T05:07:44.450Z,25.38
2023-04-29T05:10:14.475Z,23.33
2023-04-29T05:12:41.579Z,23.50
2023-04-29T05:15:09.022Z,22.10
2023-04-29T05:17:36.527Z,20.42
2023-04-29T05:20:03.920Z,21.65
2023-04-29T05:22:31.032Z,21.38
2023-04-29T05:25:02.875Z,21.38
2023-04-29T05:27:30.283Z,19.42
2023-04-29T05:29:57.402Z,19.35
2023-04-29T05:32:27.077Z,20.65
2023-04-29T05:34:54.189Z,18.30
2023-04-29T05:37:20.855Z,17.52
2023-04-29T05:39:50.082Z,17.83
2023-04-29T05:42:16.798Z,18.55
2023-04-29T05:44:45.870Z,17.90
2023-04-29T05:47:12.545Z,18.88
2023-04-29T05:49:42.081Z,17.95
2023-04-29T05:52:09.241Z,18.05
2023-04-29T05:54:36.367Z,19.02
2023-04-29T05:57:03.971Z,17.17
2023-04-29T05:59:31.682Z,18.83
2023-04-29T06:01:58.974Z,17.23
2023-04-29T06:04:27.086Z,16.52
2023-04-29T06:06:57.738Z,17.80
2023-04-29T06:09:28.480Z,18.92
2023-04-29T06:11:56.177Z,18.35
2023-04-29T06:14:23.371Z,17.88
2023-04-29T06:16:50.592Z,16.33
2023-04-29T06:19:17.680Z,16.35
2023-04-29T06:21:44.840Z,15.45
2023-04-29T06:24:11.924Z,15.75
2023-04-29T06:26:41.252Z,15.82
2023-04-29T06:29:09.271Z,14.65
2023-04-29T06:31:36.377Z,15.57
2023-04-29T06:34:03.565Z,14.80
2023-04-29T06:36:30.683Z,13.88
2023-04-29T06:39:00.270Z,14.95
2023-04-29T06:41:28.110Z,15.15
2023-04-29T06:43:55.334Z,13.23
2023-04-29T06:46:22.465Z,13.60
2023-04-29T06:48:51.813Z,12.73
2023-04-29T06:51:18.929Z,12.05
2023-04-29T06:53:46.831Z,13.63
2023-04-29T06:56:15.564Z,15.15
2023-04-29T06:58:44.017Z,14.30
2023-04-29T07:01:11.229Z,12.73
2023-04-29T07:03:38.493Z,13.68
2023-04-29T07:06:06.327Z,13.23
2023-04-29T07:08:33.606Z,12.80
2023-04-29T07:11:03.047Z,12.10
2023-04-29T07:13:30.254Z,12.85
2023-04-29T07:15:57.371Z,12.77
2023-04-29T07:18:24.568Z,11.88
2023-04-29T07:20:52.898Z,12.05
2023-04-29T07:23:20.631Z,11.80
2023-04-29T07:25:47.798Z,10.63
2023-04-29T07:28:14.926Z,10.38
2023-04-29T07:30:44.524Z,10.48
2023-04-29T07:33:11.643Z,9.95
2023-04-29T07:35:38.811Z,9.10
2023-04-29T07:38:05.911Z,9.15
2023-04-29T07:40:32.974Z,9.85
2023-04-29T07:43:04.674Z,9.85
2023-04-29T07:45:34.106Z,10.82
2023-04-29T07:48:01.568Z,10.40
2023-04-29T07:50:28.713Z,10.60
2023-04-29T07:52:57.767Z,9.30
2023-04-29T07:55:27.047Z,8.23
2023-04-29T07:57:57.013Z,9.38
2023-04-29T08:00:25.408Z,8.82
2023-04-29T08:02:56.283Z,9.13
2023-04-29T08:05:24.358Z,9.48
2023-04-29T08:07:52.026Z,8.93
2023-04-29T08:10:19.683Z,9.15
2023-04-29T08:12:47.063Z,9.20
2023-04-29T08:15:14.168Z,10.20
2023-04-29T08:17:41.358Z,9.75
2023-04-29T08:20:09.397Z,8.68
2023-04-29T08:22:38.836Z,10.05
2023-04-29T08:25:06.139Z,10.75
2023-04-29T08:27:33.251Z,10.10
2023-04-29T08:30:00.380Z,9.18
2023-04-29T08:32:27.584Z,9.40
2023-04-29T08:34:54.943Z,10.70
2023-04-29T08:37:22.392Z,9.77
2023-04-29T08:39:49.590Z,9.75
2023-04-29T08:42:17.954Z,9.40
2023-04-29T08:44:47.484Z,8.23
2023-04-29T08:47:15.122Z,8.57
2023-04-29T08:49:42.581Z,9.07
2023-04-29T08:52:12.246Z,8.77
2023-04-29T08:54:41.945Z,9.18
2023-04-29T08:57:11.459Z,8.85
2023-04-29T08:59:38.805Z,8.88
2023-04-29T09:02:07.620Z,8.23
2023-04-29T09:04:56.527Z,8.32
2023-04-29T09:07:24.479Z,9.90
2023-04-29T09:09:52.124Z,9.27
2023-04-29T09:12:22.366Z,9.40
2023-04-29T09:14:49.427Z,9.30
2023-04-29T09:17:16.593Z,8.75
2023-04-29T09:19:47.552Z,9.23
2023-04-29T09:22:14.718Z,7.05
2023-04-29T09:24:43.680Z,8.25
2023-04-29T09:27:11.187Z,9.57
2023-04-29T09:29:40.852Z,9.73
2023-04-29T09:32:21.448Z,8.40
2023-04-29T09:34:48.724Z,8.48
2023-04-29T09:37:26.330Z,7.95
2023-04-29T09:39:53.425Z,8.07
2023-04-29T09:42:20.540Z,9.52
2023-04-29T09:44:49.877Z,9.38
2023-04-29T09:47:17.236Z,7.38
2023-04-29T09:49:49.969Z,8.10
2023-04-29T09:52:18.255Z,8.90
2023-04-29T09:54:47.750Z,9.85
2023-04-29T09:57:19.124Z,9.10
2023-04-29T09:59:46.301Z,8.25
2023-04-29T10:02:20.744Z,9.88
2023-04-29T10:04:49.008Z,9.13
2023-04-29T10:07:19.129Z,8.77
2023-04-29T10:09:50.552Z,8.38
2023-04-29T10:12:18.598Z,9.00
2023-04-29T10:14:51.464Z,8.75
2023-04-29T10:17:21.385Z,8.98
2023-04-29T10:19:55.877Z,9.55
2023-04-29T10:22:43.185Z,9.25
2023-04-29T10:25:12.112Z,9.95
2023-04-29T10:27:40.169Z,8.87
2023-04-29T10:30:08.880Z,8.77
2023-04-29T10:32:49.805Z,8.80
2023-04-29T10:35:20.249Z,8.90
2023-04-29T10:37:50.037Z,8.60
2023-04-29T10:40:21.200Z,9.70
2023-04-29T10:42:48.380Z,10.32
2023-04-29T10:45:21.358Z,9.98
2023-04-29T10:48:06.426Z,10.75
2023-04-29T10:50:35.047Z,11.10
2023-04-29T10:53:05.688Z,11.45
2023-04-29T10:55:36.715Z,12.05
2023-04-29T10:58:04.655Z,13.07
2023-04-29T11:00:35.666Z,12.70
2023-04-29T11:03:03.362Z,11.98
2023-04-29T11:05:37.265Z,13.25
2023-04-29T11:08:39.750Z,12.63
2023-04-29T11:11:07.089Z,13.35
2023-04-29T11:13:38.468Z,14.10
2023-04-29T11:16:09.059Z,12.63
2023-04-29T11:18:36.974Z,13.43
2023-04-29T11:21:06.859Z,14.10
2023-04-29T11:26:01.768Z,11.73
2023-04-29T11:28:29.174Z,12.27
2023-04-29T11:30:57.434Z,13.73
2023-04-29T11:33:25.256Z,14.52
2023-04-29T11:35:54.969Z,14.45
2023-04-29T11:38:29.217Z,15.30
2023-04-29T11:40:56.884Z,14.75
2023-04-29T11:43:24.718Z,14.85
2023-04-29T11:45:52.737Z,17.70
2023-04-29T11:48:20.436Z,15.32
2023-04-29T11:50:48.652Z,18.27
2023-04-29T11:53:18.955Z,16.00
2023-04-29T11:55:46.437Z,16.60
2023-04-29T11:58:15.729Z,17.15
2023-04-29T12:00:42.898Z,17.05
2023-04-29T12:03:19.241Z,18.23
2023-04-29T12:05:49.428Z,18.27
2023-04-29T12:08:19.997Z,19.73
2023-04-29T12:10:47.914Z,17.15
2023-04-29T12:13:15.496Z,17.30
2023-04-29T12:15:43.095Z,15.95
2023-04-29T12:18:12.902Z,15.23
2023-04-29T12:23:13.349Z,12.63
2023-04-29T12:25:43.778Z,12.13
2023-04-29T12:28:14.240Z,13.55
2023-04-29T12:30:41.620Z,12.98
2023-04-29T12:33:09.897Z,12.30
2023-04-29T12:35:39.892Z,14.70
2023-04-29T12:38:06.997Z,16.33
2023-04-29T12:40:34.056Z,15.68
2023-04-29T12:43:08.489Z,17.33
2023-04-29T12:45:36.300Z,19.25
2023-04-29T12:48:08.753Z,22.13
2023-04-29T12:50:39.803Z,24.33
2023-04-29T12:53:07.552Z,27.40
2023-04-29T12:55:38.192Z,27.88
2023-04-29T12:58:05.845Z,28.48
2023-04-29T13:00:35.008Z,30.55
2023-04-29T13:03:02.492Z,31.58
2023-04-29T13:05:29.708Z,31.25
2023-04-29T13:07:56.928Z,31.20
2023-04-29T13:10:24.065Z,35.08
2023-04-29T13:12:53.665Z,30.67
2023-04-29T13:15:21.537Z,31.67
2023-04-29T13:17:48.674Z,30.23
2023-04-29T13:20:15.847Z,31.20
2023-04-29T13:22:44.367Z,32.15
2023-04-29T13:25:12.373Z,28.60
2023-04-29T13:27:39.855Z,31.58
2023-04-29T13:30:07.530Z,34.88
2023-04-29T13:32:43.985Z,33.10
2023-04-29T13:35:13.557Z,32.60
2023-04-29T13:37:40.653Z,33.78
2023-04-29T13:42:48.952Z,32.38
2023-04-29T13:45:17.686Z,29.42
2023-04-29T13:48:02.604Z,29.05
2023-04-29T13:53:35.543Z,27.33
2023-04-29T14:03:19.697Z,23.10
2023-04-29T14:05:47.407Z,23.23
2023-04-29T14:08:16.915Z,23.38
2023-04-29T14:10:44.048Z,22.25
2023-04-29T14:13:13.660Z,22.38
2023-04-29T14:15:41.174Z,22.60
2023-04-29T14:18:09.499Z,24.38
2023-04-29T14:20:36.874Z,22.30
2023-04-29T14:23:04.141Z,22.65
2023-04-29T14:25:33.796Z,21.02
2023-04-29T14:28:03.988Z,23.23
2023-04-29T14:30:31.092Z,24.73
2023-04-29T14:32:57.836Z,22.48
2023-04-29T14:35:24.623Z,20.20
2023-04-29T14:37:51.483Z,19.98
2023-04-29T14:40:18.182Z,21.67
2023-04-29T14:42:47.026Z,19.23
2023-04-29T14:45:17.096Z,19.08
2023-04-29T14:47:46.751Z,18.20
2023-04-29T14:50:13.533Z,23.30
2023-04-29T14:52:40.313Z,20.70
2023-04-29T14:55:09.705Z,22.05
2023-04-29T14:57:36.396Z,22.33
2023-04-29T15:00:03.738Z,19.20
2023-04-29T15:02:30.900Z,19.63
2023-04-29T15:04:59.719Z,17.90
2023-04-29T15:07:31.129Z,18.48
2023-04-29T15:09:58.514Z,17.52
2023-04-29T15:12:25.195Z,17.85
2023-04-29T15:14:53.595Z,15.13
2023-04-29T15:17:20.727Z,17.95
2023-04-29T15:19:49.949Z,20.42
2023-04-29T15:22:16.615Z,22.17
2023-04-29T15:24:43.362Z,21.95
2023-04-29T15:27:10.088Z,18.90
2023-04-29T15:29:39.064Z,19.38
2023-04-29T15:32:06.142Z,19.00
2023-04-29T15:34:35.147Z,18.50
2023-04-29T15:37:04.205Z,16.47
2023-04-29T15:39:30.875Z,16.23
2023-04-29T15:41:58.860Z,17.85
2023-04-29T15:44:25.616Z,17.50
2023-04-29T15:46:52.899Z,15.00
2023-04-29T15:49:19.610Z,14.52
2023-04-29T15:51:46.276Z,14.70
2023-04-29T15:54:13.070Z,15.05
2023-04-29T15:56:39.857Z,13.63
2023-04-29T15:59:06.523Z,12.98
2023-04-29T16:01:34.414Z,15.77
2023-04-29T16:06:30.065Z,13.88
2023-04-29T16:08:56.789Z,13.77
2023-04-29T16:11:23.519Z,14.38
2023-04-29T16:13:52.416Z,14.50
2023-04-29T16:16:19.183Z,13.40
2023-04-29T16:18:45.926Z,14.98
2023-04-29T16:21:14.826Z,12.45
2023-04-29T16:23:41.520Z,13.63
2023-04-29T16:26:08.259Z,15.00
2023-04-29T16:28:37.381Z,14.13
2023-04-29T16:31:04.319Z,14.75
2023-04-29T16:33:33.319Z,15.90
2023-04-29T16:36:00.345Z,14.50
2023-04-29T16:38:31.065Z,15.43
2023-04-29T16:41:04.170Z,13.90
2023-04-29T16:43:31.071Z,14.75
2023-04-29T16:45:58.502Z,17.23
2023-04-29T16:48:25.293Z,16.27
2023-04-29T16:50:52.393Z,16.00
2023-04-29T16:53:19.217Z,16.52
2023-04-29T16:55:46.403Z,17.88
2023-04-29T16:58:13.159Z,16.92
2023-04-29T17:00:40.065Z,18.67
2023-04-29T17:03:06.963Z,16.85
2023-04-29T17:05:33.899Z,18.50
2023-04-29T17:08:00.657Z,15.63
2023-04-29T17:10:27.598Z,16.40
2023-04-29T17:12:54.684Z,17.67
2023-04-29T17:15:21.340Z,17.00
2023-04-29T17:17:48.299Z,16.45
2023-04-29T17:20:15.012Z,15.88
2023-04-29T17:22:41.886Z,16.17
2023-04-29T17:25:14.757Z,17.38
2023-04-29T17:27:45.087Z,15.15
2023-04-29T17:30:12.523Z,16.50
2023-04-29T17:32:39.585Z,16.83
2023-04-29T17:35:14.534Z,16.50
2023-04-29T17:37:41.349Z,14.70
2023-04-29T17:40:08.545Z,15.73
2023-04-29T17:42:35.228Z,14.73
2023-04-29T17:45:01.942Z,14.70
2023-04-29T17:47:31.129Z,15.45
2023-04-29T17:50:00.262Z,15.80
2023-04-29T17:52:29.167Z,15.27
2023-04-29T17:54:58.361Z,15.50
2023-04-29T17:57:28.656Z,14.68
2023-04-29T17:59:55.554Z,13.85
2023-04-29T18:02:24.974Z,13.20
2023-04-29T18:04:51.722Z,12.80
2023-04-29T18:07:18.437Z,14.80
2023-04-29T18:09:47.607Z,13.10
2023-04-29T18:12:16.534Z,12.98
2023-04-29T18:14:43.207Z,14.20
2023-04-29T18:17:09.905Z,13.85
2023-04-29T18:19:38.725Z,13.60
2023-04-29T18:22:06.277Z,13.48
2023-04-29T18:24:32.970Z,13.48
2023-04-29T18:26:59.707Z,13.02
2023-04-29T18:29:26.443Z,13.85
2023-04-29T18:31:54.765Z,15.60
2023-04-29T18:34:23.847Z,13.68
2023-04-29T18:36:50.524Z,13.33
2023-04-29T18:39:21.974Z,14.70
2023-04-29T18:41:48.940Z,13.02
2023-04-29T18:44:20.254Z,14.20
2023-04-29T18:46:46.986Z,14.40
2023-04-29T18:49:16.963Z,13.73
2023-04-29T18:51:46.684Z,13.25
2023-04-29T18:54:18.591Z,13.35
2023-04-29T18:56:49.634Z,14.75
2023-04-29T18:59:19.306Z,15.60
2023-04-29T19:01:49.458Z,14.98
2023-04-29T19:06:43.662Z,15.02
2023-04-29T19:09:14.203Z,15.60
2023-04-29T19:11:40.968Z,16.13
2023-04-29T19:14:07.784Z,15.13
2023-04-29T19:16:37.456Z,16.33
2023-04-29T19:21:33.640Z,15.47
2023-04-29T19:24:00.607Z,15.95
2023-04-29T19:29:03.600Z,15.93
2023-04-29T19:31:34.066Z,16.13
2023-04-29T19:34:02.283Z,15.35
2023-04-29T19:36:31.292Z,15.38
2023-04-29T19:39:02.139Z,15.50
2023-04-29T19:41:34.582Z,18.40
2023-04-29T19:44:03.898Z,17.23
2023-04-29T19:46:30.700Z,18.15
2023-04-29T19:48:57.491Z,18.23
2023-04-29T19:51:24.567Z,18.38
2023-04-29T19:53:52.440Z,18.00
2023-04-29T19:56:20.008Z,19.08
2023-04-29T19:58:47.404Z,20.75
2023-04-29T20:01:16.805Z,20.58
2023-04-29T20:03:46.730Z,21.77
2023-04-29T20:08:43.144Z,22.25
2023-04-29T20:11:13.349Z,21.92
2023-04-29T20:13:42.708Z,21.70
2023-04-29T20:16:11.100Z,19.30
2023-04-29T20:18:38.335Z,18.95
2023-04-29T20:21:06.831Z,18.63
2023-04-29T20:23:36.417Z,19.50
2023-04-29T20:26:03.928Z,20.83
2023-04-29T20:28:31.027Z,19.65
2023-04-29T20:30:58.120Z,18.75
2023-04-29T20:33:25.445Z,18.88
2023-04-29T20:35:53.327Z,19.48
2023-04-29T20:38:21.929Z,18.98
2023-04-29T20:40:53.446Z,19.77
2023-04-29T20:43:20.717Z,18.58
2023-04-29T20:45:50.730Z,19.08
2023-04-29T20:48:17.965Z,19.65
2023-04-29T20:50:50.206Z,19.77
2023-04-29T20:53:17.304Z,18.77
2023-04-29T20:55:44.529Z,19.75
2023-04-29T20:58:11.823Z,21.50
2023-04-29T21:00:38.987Z,20.65
2023-04-29T21:03:06.097Z,18.92
2023-04-29T21:05:33.227Z,19.85
2023-04-29T21:08:02.555Z,19.55
2023-04-29T21:10:29.675Z,21.02
2023-04-29T21:12:56.930Z,21.13
2023-04-29T21:15:24.322Z,19.83
2023-04-29T21:17:51.446Z,22.48
2023-04-29T21:20:20.807Z,21.15
2023-04-29T21:22:56.116Z,19.98
2023-04-29T21:25:27.725Z,19.17
2023-04-29T21:27:58.355Z,20.38
2023-04-29T21:30:26.770Z,20.75
2023-04-29T21:32:54.857Z,19.90
2023-04-29T21:35:22.895Z,20.25
2023-04-29T21:37:53.164Z,19.77
2023-04-29T21:40:21.272Z,18.63
2023-04-29T21:42:52.081Z,20.27
2023-04-29T21:45:18.790Z,20.48
2023-04-29T21:47:45.516Z,19.83
2023-04-29T21:50:12.427Z,19.80
2023-04-29T21:52:39.311Z,19.23
2023-04-29T21:55:06.599Z,19.20
2023-04-29T21:57:43.660Z,19.02
2023-04-29T22:00:30.729Z,20.05
2023-04-29T22:02:57.578Z,19.95
2023-04-29T22:05:24.772Z,19.75
2023-04-29T22:07:51.541Z,20.05
2023-04-29T22:10:18.278Z,20.67
2023-04-29T22:12:47.524Z,19.83
2023-04-29T22:15:27.395Z,20.90
2023-04-29T22:17:55.909Z,20.17
2023-04-29T22:20:22.843Z,19.52
2023-04-29T22:22:54.339Z,21.17
2023-04-29T22:25:21.862Z,21.48
2023-04-29T22:27:51.974Z,19.92
2023-04-29T22:32:45.484Z,21.70
2023-04-29T22:35:12.348Z,19.73
2023-04-29T22:37:41.529Z,18.77
2023-04-29T22:40:11.905Z,21.05
2023-04-29T22:42:39.528Z,19.63
2023-04-29T22:45:08.985Z,21.17
2023-04-29T22:47:35.692Z,20.80
2023-04-29T22:50:02.394Z,21.23
2023-04-29T22:52:29.262Z,21.67
2023-04-29T22:54:58.569Z,21.98
2023-04-29T22:57:27.383Z,22.23
2023-04-29T22:59:55.384Z,21.63
2023-04-29T23:02:27.564Z,22.08
2023-04-29T23:04:55.858Z,19.45
2023-04-29T23:07:28.844Z,20.77
2023-04-29T23:09:55.920Z,21.35
2023-04-29T23:12:22.785Z,20.60
2023-04-29T23:14:50.919Z,22.38
2023-04-29T23:17:20.228Z,20.27
2023-04-29T23:19:46.900Z,20.92
2023-04-29T23:22:13.699Z,21.23
2023-04-29T23:24:40.428Z,22.15
2023-04-29T23:27:07.089Z,20.63
2023-04-29T23:29:36.202Z,22.55
2023-04-29T23:32:03.236Z,21.00
2023-04-29T23:34:29.917Z,21.27
2023-04-29T23:37:01.234Z,21.65
2023-04-29T23:39:30.290Z,21.45
2023-04-29T23:41:57.368Z,21.10
2023-04-29T23:44:25.150Z,20.83
2023-04-29T23:46:53.586Z,21.77
2023-04-29T23:49:22.895Z,22.17
2023-04-29T23:51:50.281Z,21.67
2023-04-29T23:54:17.606Z,22.95
2023-04-29T23:56:44.758Z,21.45
2023-04-29T23:59:11.813Z,22.55
